Perryville, Pennsylvania
Current Conditions -  °F | °C
As of 6:54 AM on Tuesday 27 Jan 2015 (Local Time) from KIPT Reporting Station
Overcast Overcast  
Wind Chill: 12°   Ceiling: 8000
Heat Index: 21°   Visibility: 10mi
Dew Point: 13°   Wind: 7mph
Humidity: 71%   Direction: 290°WNW
Pressure: 29.83"   Gusts: NA
Location:  41.3181°N, 77.075°W
Report Text: KIPT 271154Z 29006KT 10SM FEW025 OVC080 M06/M11 A2983 RMK AO2 SNB02E34 SLP109 P0000 60001 70024 T10611106 11050 21061 53007
Loading
Personal Weather Stations






























Interactive Weather Map New forecast layout! Learn more

10-Day Weather Forecast

Advertisements
Track Severe Weather on mobile